logo
Search for airport 
image banner adimage banner adimage banner ad
image banner ad

SGSRIT - Santa Rita

Located in Est Santa Rita, Paraguay

ICAO - , IATA -

Data provided by Airmate  

General information

Coordinates: S23°4'54" W56°11'7"
Elevation is 816 feet MSL.
Magnetic variation is -17° East
View others Airports in Amambay Department

Operational data

Special qualification required
Current time UTC:
Current local time:
Weather at : SBPP - Ponta Pora ( 77 km )
METAR: SBPP 171300Z 04007KT CAVOK 20/16 Q1027
TAF: TAF SBPP 170900Z 1712/1812 09006KT CAVOK TX28/1718Z TN14/1809Z BECMG 1714/1716 05009KT BECMG 1718/1720 02007KT BECMG 1721/1723 06005KT RMK PHH
View NOTAMs / SUP AIP / TFR affecting this airport [VIEW]
Communications frequencies: [VIEW]

Runways:

RWY identifierQFULength (ft)Width (ft)SurfaceLDA (ft)
34326°3284106GRAS
16146°3284106GRAS

Airport contact information

Address: Est Santa Rita Paraguay

Satellite view of SGSRIT